Time;durP1;ratioP1;P1;durP2;ratioP2;P2;SDS_P1;SDS_P2;PMS_P1;PMS_P2;Temp;Humidity;BMP_temperature;BMP_pressure;BME280_temperature;BME280_humidity;BME280_pressure;Samples;Min_cycle;Max_cycle;Signal;HPM_P1;HPM_P2
2021/11/25 00:00:34;;;;;;;45.35;15.95;;;;;;;;;;4962146;28;20113;-94
2021/11/25 00:03:01;;;;;;;36.63;14.13;;;;;;;;;;4962008;28;20035;-94
2021/11/25 00:05:27;;;;;;;30.75;13.95;;;;;;;;;;4980033;28;20027;-94
2021/11/25 00:07:55;;;;;;;32.78;13.38;;;;;;;;;;4979576;28;20030;-94
2021/11/25 00:10:22;;;;;;;34.30;14.50;;;;;;;;;;4961665;28;20035;-94
2021/11/25 00:12:48;;;;;;;30.60;14.20;;;;;;;;;;4960334;28;20482;-93
2021/11/25 00:15:15;;;;;;;35.83;15.40;;;;;;;;;;4962019;28;20043;-92
2021/11/25 00:17:41;;;;;;;31.02;13.48;;;;;;;;;;4961354;28;20027;-93
2021/11/25 00:20:09;;;;;;;26.27;12.73;;;;;;;;;;4961294;28;20036;-93
2021/11/25 00:22:36;;;;;;;29.05;11.10;;;;;;;;;;4960166;28;20054;-94
2021/11/25 00:25:03;;;;;;;33.30;13.60;;;;;;;;;;4960892;28;20031;-94
2021/11/25 00:27:29;;;;;;;31.45;12.70;;;;;;;;;;4961499;28;20039;-93
2021/11/25 00:29:55;;;;;;;26.20;11.55;;;;;;;;;;4960473;28;20034;-93
2021/11/25 00:32:22;;;;;;;37.85;13.70;;;;;;;;;;4960414;28;20039;-94
2021/11/25 00:34:48;;;;;;;53.63;11.88;;;;;;;;;;4957769;28;20419;-94
2021/11/25 00:37:14;;;;;;;31.83;11.50;;;;;;;;;;4957686;28;20035;-94
2021/11/25 00:39:41;;;;;;;34.85;12.57;;;;;;;;;;4957444;29;20041;-93
2021/11/25 00:42:07;;;;;;;27.67;11.13;;;;;;;;;;4958431;28;20024;-95
2021/11/25 00:44:34;;;;;;;37.38;12.25;;;;;;;;;;4957430;29;20038;-91
2021/11/25 00:47:00;;;;;;;29.67;11.45;;;;;;;;;;4956688;28;20047;-90
2021/11/25 00:49:27;;;;;;;27.65;13.88;;;;;;;;;;4956952;29;20031;-93
2021/11/25 00:51:53;;;;;;;36.17;11.68;;;;;;;;;;4958541;29;20034;-94
2021/11/25 00:54:19;;;;;;;47.38;11.20;;;;;;;;;;4958491;28;20023;-94
2021/11/25 00:56:46;;;;;;;27.98;10.95;;;;;;;;;;4961231;28;20027;-95
2021/11/25 00:59:12;;;;;;;32.42;12.80;;;;;;;;;;4961418;29;20030;-92
2021/11/25 01:01:38;;;;;;;30.70;13.45;;;;;;;;;;4960297;28;20129;-93
2021/11/25 01:04:05;;;;;;;33.75;13.75;;;;;;;;;;4961908;28;20031;-93
2021/11/25 01:06:31;;;;;;;34.17;12.15;;;;;;;;;;4961177;29;20042;-94
2021/11/25 01:08:58;;;;;;;33.00;13.75;;;;;;;;;;4961767;29;20083;-94
2021/11/25 01:11:25;;;;;;;27.52;11.95;;;;;;;;;;4960609;29;20117;-94
2021/11/25 01:13:52;;;;;;;21.00;10.30;;;;;;;;;;4961888;29;20027;-93
2021/11/25 01:16:19;;;;;;;30.73;10.38;;;;;;;;;;4961196;29;20134;-95
2021/11/25 01:18:46;;;;;;;30.98;12.13;;;;;;;;;;4959365;29;20023;-92
2021/11/25 01:21:12;;;;;;;25.67;11.23;;;;;;;;;;4960310;29;20027;-95
2021/11/25 01:23:38;;;;;;;27.98;12.82;;;;;;;;;;4961841;29;20047;-92
2021/11/25 01:26:05;;;;;;;34.33;12.80;;;;;;;;;;4962600;29;20033;-92
2021/11/25 01:28:31;;;;;;;31.02;11.63;;;;;;;;;;4959708;29;20027;-92
2021/11/25 01:31:00;;;;;;;31.05;13.02;;;;;;;;;;4960140;29;20034;-93
2021/11/25 01:33:27;;;;;;;25.00;10.00;;;;;;;;;;4959779;28;20047;-94
2021/11/25 01:35:53;;;;;;;26.80;11.30;;;;;;;;;;4960009;28;20404;-94
2021/11/25 01:38:20;;;;;;;28.02;12.25;;;;;;;;;;4960952;28;20034;-90
2021/11/25 01:40:47;;;;;;;29.38;11.00;;;;;;;;;;4959734;29;20377;-93
2021/11/25 01:43:14;;;;;;;25.75;11.38;;;;;;;;;;4960013;29;20090;-93
2021/11/25 01:45:40;;;;;;;28.88;12.55;;;;;;;;;;4960759;29;20042;-92
2021/11/25 01:48:07;;;;;;;32.45;10.65;;;;;;;;;;4959646;29;20480;-94
2021/11/25 01:50:34;;;;;;;28.13;11.93;;;;;;;;;;4959987;29;20027;-93
2021/11/25 01:53:01;;;;;;;28.88;9.43;;;;;;;;;;4959073;29;20050;-93
2021/11/25 01:55:28;;;;;;;24.35;10.77;;;;;;;;;;4961156;28;20034;-93
2021/11/25 01:57:54;;;;;;;26.90;11.98;;;;;;;;;;4959273;28;20118;-92
2021/11/25 02:00:23;;;;;;;22.98;11.43;;;;;;;;;;4959236;29;20035;-91
2021/11/25 02:02:49;;;;;;;26.20;11.05;;;;;;;;;;4959360;28;20035;-91
2021/11/25 02:05:16;;;;;;;29.65;11.80;;;;;;;;;;4959057;28;20027;-94
2021/11/25 02:07:42;;;;;;;25.92;12.32;;;;;;;;;;4960623;28;20115;-89
2021/11/25 02:10:09;;;;;;;20.17;9.32;;;;;;;;;;4958921;29;20024;-91
2021/11/25 02:12:36;;;;;;;26.63;10.68;;;;;;;;;;4959227;29;20031;-92
2021/11/25 02:15:02;;;;;;;34.03;11.07;;;;;;;;;;4958914;28;20058;-92
2021/11/25 02:17:28;;;;;;;26.42;11.30;;;;;;;;;;4959003;29;20035;-90
2021/11/25 02:19:58;;;;;;;21.15;9.95;;;;;;;;;;4958702;29;20034;-92
2021/11/25 02:22:24;;;;;;;25.83;11.43;;;;;;;;;;4960152;28;20034;-92
2021/11/25 02:24:51;;;;;;;32.13;12.13;;;;;;;;;;4958707;29;20031;-92
2021/11/25 02:27:20;;;;;;;22.73;10.00;;;;;;;;;;4959788;29;20035;-92
2021/11/25 02:29:47;;;;;;;26.17;12.38;;;;;;;;;;4961679;29;20028;-92
2021/11/25 02:32:13;;;;;;;29.08;11.77;;;;;;;;;;4972543;29;20037;-91
2021/11/25 02:34:39;;;;;;;28.35;9.88;;;;;;;;;;4973782;28;20043;-92
2021/11/25 02:37:07;;;;;;;25.98;9.88;;;;;;;;;;4967736;28;20035;-92
2021/11/25 02:39:34;;;;;;;23.38;9.88;;;;;;;;;;4966013;28;20114;-91
2021/11/25 02:42:00;;;;;;;24.05;10.40;;;;;;;;;;4962914;29;20053;-91
2021/11/25 02:44:26;;;;;;;25.20;10.38;;;;;;;;;;4959252;29;20034;-92
2021/11/25 02:46:52;;;;;;;30.70;11.82;;;;;;;;;;4958596;28;20140;-92
2021/11/25 02:49:19;;;;;;;34.80;11.13;;;;;;;;;;4958313;29;20110;-92
2021/11/25 02:51:45;;;;;;;30.42;11.93;;;;;;;;;;4959709;29;20083;-92
2021/11/25 02:54:12;;;;;;;28.30;12.13;;;;;;;;;;4958148;28;20027;-91
2021/11/25 02:56:38;;;;;;;29.90;11.98;;;;;;;;;;4958831;28;20119;-88
2021/11/25 02:59:04;;;;;;;24.38;10.77;;;;;;;;;;4957373;29;20034;-93
2021/11/25 03:01:32;;;;;;;27.67;10.48;;;;;;;;;;4958298;29;20131;-94
2021/11/25 03:03:59;;;;;;;28.52;10.45;;;;;;;;;;4958553;28;20091;-95
2021/11/25 03:06:26;;;;;;;35.30;12.05;;;;;;;;;;4958006;29;20511;-94
2021/11/25 03:08:53;;;;;;;21.35;10.32;;;;;;;;;;4958102;29;20484;-93
2021/11/25 03:11:21;;;;;;;33.05;11.15;;;;;;;;;;4958330;29;20034;-94
2021/11/25 03:13:49;;;;;;;28.75;10.93;;;;;;;;;;4958184;28;20031;-94
2021/11/25 03:16:16;;;;;;;26.95;11.25;;;;;;;;;;4957833;28;20061;-91
2021/11/25 03:18:43;;;;;;;25.55;10.85;;;;;;;;;;4957912;29;20059;-94
2021/11/25 03:21:10;;;;;;;27.95;12.07;;;;;;;;;;4958234;28;20031;-92
2021/11/25 03:23:37;;;;;;;24.52;10.63;;;;;;;;;;4958038;29;20027;-94
2021/11/25 03:26:05;;;;;;;25.50;9.93;;;;;;;;;;4958480;28;20008;-92
2021/11/25 03:28:31;;;;;;;22.50;10.25;;;;;;;;;;4959126;28;20027;-96
2021/11/25 03:30:58;;;;;;;26.17;12.00;;;;;;;;;;4958597;29;20024;-93
2021/11/25 03:33:29;;;;;;;29.73;11.20;;;;;;;;;;4961019;28;20046;-95
2021/11/25 03:35:56;;;;;;;39.78;13.10;;;;;;;;;;4960879;28;20045;-92
2021/11/25 03:38:23;;;;;;;21.30;10.23;;;;;;;;;;4977073;28;20126;-91
2021/11/25 03:40:49;;;;;;;26.70;10.82;;;;;;;;;;4960781;28;20031;-95
2021/11/25 03:43:16;;;;;;;29.75;11.50;;;;;;;;;;4960690;28;20023;-94
2021/11/25 03:45:42;;;;;;;22.73;10.07;;;;;;;;;;4960381;28;20046;-93
2021/11/25 03:48:09;;;;;;;29.88;13.20;;;;;;;;;;4960571;28;20110;-94
2021/11/25 03:50:35;;;;;;;32.97;12.52;;;;;;;;;;4977962;28;20403;-93
2021/11/25 03:53:02;;;;;;;26.25;11.07;;;;;;;;;;4960551;28;20023;-94
2021/11/25 03:55:28;;;;;;;28.45;12.60;;;;;;;;;;4960401;28;20031;-94
2021/11/25 03:57:54;;;;;;;32.70;13.15;;;;;;;;;;4960378;28;20369;-95
2021/11/25 04:00:22;;;;;;;30.45;12.15;;;;;;;;;;4977666;28;20023;-93
2021/11/25 04:02:49;;;;;;;24.08;11.60;;;;;;;;;;4960709;28;20415;-92
2021/11/25 04:05:16;;;;;;;31.48;12.70;;;;;;;;;;4959837;28;20035;-93
2021/11/25 04:07:42;;;;;;;31.50;12.77;;;;;;;;;;4959933;28;20035;-92
2021/11/25 04:10:10;;;;;;;36.88;13.43;;;;;;;;;;4960194;28;20109;-94
2021/11/25 04:12:36;;;;;;;29.20;12.95;;;;;;;;;;4960383;28;20540;-92
2021/11/25 04:15:04;;;;;;;36.85;12.23;;;;;;;;;;4960746;28;20486;-93
2021/11/25 04:17:30;;;;;;;30.42;13.40;;;;;;;;;;4960125;28;20483;-92
2021/11/25 04:19:57;;;;;;;29.27;12.70;;;;;;;;;;4959950;28;20031;-94
2021/11/25 04:22:24;;;;;;;29.13;13.32;;;;;;;;;;4977211;28;20026;-94
2021/11/25 04:24:50;;;;;;;29.48;13.02;;;;;;;;;;4960458;28;20484;-90
2021/11/25 04:27:16;;;;;;;27.38;11.45;;;;;;;;;;4959779;28;20092;-94
2021/11/25 04:29:47;;;;;;;31.33;14.02;;;;;;;;;;4963592;28;20054;-95
2021/11/25 04:37:55;;;;;;;37.58;13.13;;;;;;;;;;4980743;28;20032;-93
2021/11/25 04:40:21;;;;;;;30.33;12.88;;;;;;;;;;4963759;28;20387;-93
2021/11/25 04:42:47;;;;;;;40.72;14.60;;;;;;;;;;4963530;28;20031;-91
2021/11/25 04:45:14;;;;;;;31.88;13.82;;;;;;;;;;4963576;28;20023;-93
2021/11/25 04:47:40;;;;;;;30.23;13.07;;;;;;;;;;4963067;28;20089;-94
2021/11/25 04:50:07;;;;;;;25.85;12.77;;;;;;;;;;4963471;28;20027;-91
2021/11/25 04:52:34;;;;;;;28.35;13.02;;;;;;;;;;4964005;28;20031;-93
2021/11/25 04:55:00;;;;;;;33.38;14.20;;;;;;;;;;4964280;28;20033;-93
2021/11/25 04:57:27;;;;;;;25.65;12.10;;;;;;;;;;4964224;28;20080;-93
2021/11/25 04:59:53;;;;;;;29.98;12.70;;;;;;;;;;4964266;28;20026;-94
2021/11/25 05:02:20;;;;;;;37.50;13.85;;;;;;;;;;4981858;28;20087;-94
2021/11/25 05:04:46;;;;;;;27.88;12.20;;;;;;;;;;4965592;28;20074;-94
2021/11/25 05:07:12;;;;;;;38.80;14.43;;;;;;;;;;4965841;28;20515;-93
2021/11/25 05:09:39;;;;;;;29.42;13.30;;;;;;;;;;4965285;28;20031;-93
2021/11/25 05:12:05;;;;;;;33.80;12.98;;;;;;;;;;4966796;28;20122;-92
2021/11/25 05:14:31;;;;;;;32.55;13.60;;;;;;;;;;4983271;28;20037;-92
2021/11/25 05:16:57;;;;;;;41.17;16.20;;;;;;;;;;4976277;28;20031;-88
2021/11/25 05:19:24;;;;;;;35.00;12.93;;;;;;;;;;4983379;28;20076;-90
2021/11/25 05:21:50;;;;;;;39.20;14.65;;;;;;;;;;4979323;28;20039;-92
2021/11/25 05:24:18;;;;;;;35.17;14.93;;;;;;;;;;4997870;28;20019;-89
2021/11/25 05:26:45;;;;;;;29.58;14.52;;;;;;;;;;4983547;28;20110;-92
2021/11/25 05:29:11;;;;;;;41.58;15.57;;;;;;;;;;5001099;28;20064;-85
2021/11/25 05:31:37;;;;;;;35.30;14.07;;;;;;;;;;4977781;28;20085;-92
2021/11/25 05:34:03;;;;;;;38.15;15.70;;;;;;;;;;4964906;28;20070;-92
2021/11/25 05:36:29;;;;;;;36.42;15.45;;;;;;;;;;4964362;28;20038;-87
2021/11/25 05:38:55;;;;;;;36.28;14.75;;;;;;;;;;4962989;28;20037;-90
2021/11/25 05:41:21;;;;;;;38.38;15.43;;;;;;;;;;4963127;28;20507;-90
2021/11/25 05:43:48;;;;;;;37.58;15.73;;;;;;;;;;4964266;28;20030;-91
2021/11/25 05:46:14;;;;;;;33.63;14.57;;;;;;;;;;4963120;28;20039;-89
2021/11/25 05:48:40;;;;;;;40.00;14.70;;;;;;;;;;4980405;28;20031;-91
2021/11/25 05:51:06;;;;;;;32.88;14.05;;;;;;;;;;4961045;28;20042;-94
2021/11/25 05:53:32;;;;;;;34.88;14.15;;;;;;;;;;4961379;28;20392;-91
2021/11/25 05:55:58;;;;;;;38.65;13.73;;;;;;;;;;4961303;28;20031;-91
2021/11/25 05:58:24;;;;;;;31.80;13.15;;;;;;;;;;4964745;28;20027;-94
2021/11/25 06:00:51;;;;;;;35.85;15.07;;;;;;;;;;4963993;28;20077;-94
2021/11/25 06:03:17;;;;;;;31.02;14.05;;;;;;;;;;4964240;28;20027;-90
2021/11/25 06:05:44;;;;;;;36.00;15.30;;;;;;;;;;4962774;28;20054;-94
2021/11/25 06:08:10;;;;;;;43.83;15.90;;;;;;;;;;4963340;28;20031;-95
2021/11/25 06:10:36;;;;;;;30.85;13.48;;;;;;;;;;4966107;28;20109;-95
2021/11/25 06:13:03;;;;;;;36.90;14.85;;;;;;;;;;4967947;28;20030;-92
2021/11/25 06:15:30;;;;;;;33.90;15.23;;;;;;;;;;4986465;28;20029;-94
2021/11/25 06:17:56;;;;;;;32.08;14.07;;;;;;;;;;4993441;28;20038;-92
2021/11/25 06:20:23;;;;;;;38.53;15.65;;;;;;;;;;4997965;28;20562;-93
2021/11/25 06:22:50;;;;;;;29.80;14.60;;;;;;;;;;4980885;28;20030;-95
2021/11/25 06:25:17;;;;;;;32.38;13.48;;;;;;;;;;4981030;28;20530;-93
2021/11/25 06:27:44;;;;;;;33.50;14.77;;;;;;;;;;4982338;28;20037;-95
2021/11/25 06:30:11;;;;;;;33.75;14.13;;;;;;;;;;4982419;28;20029;-92
2021/11/25 06:32:39;;;;;;;39.53;16.02;;;;;;;;;;4982181;28;20026;-94
2021/11/25 06:35:11;;;;;;;37.65;15.32;;;;;;;;;;4981762;28;20054;-93
2021/11/25 06:37:44;;;;;;;35.92;14.75;;;;;;;;;;4983849;28;20110;-94
2021/11/25 06:40:13;;;;;;;36.15;14.02;;;;;;;;;;4982055;28;20022;-91
2021/11/25 06:42:39;;;;;;;38.08;14.20;;;;;;;;;;4981763;28;20033;-94
2021/11/25 06:45:05;;;;;;;42.65;14.35;;;;;;;;;;4985642;28;20037;-95
2021/11/25 06:47:32;;;;;;;33.30;14.40;;;;;;;;;;4981640;28;20471;-92
2021/11/25 06:50:01;;;;;;;35.25;14.80;;;;;;;;;;4986977;28;20530;-95
2021/11/25 07:16:56;;;;;;;35.28;13.70;;;;;;;;;;6094480;23;20025;31
2021/11/25 07:23:11;;;;;;;32.83;14.18;;;;;;;;;;4937419;29;20120;-95
2021/11/25 07:59:53;;;;;;;37.25;15.55;;;;;;;;;;5033136;28;20105;-91
2021/11/25 08:02:20;;;;;;;37.92;14.35;;;;;;;;;;5026896;28;20061;-93
2021/11/25 08:04:49;;;;;;;36.33;14.30;;;;;;;;;;5009232;28;20132;-94
2021/11/25 08:07:16;;;;;;;35.55;15.63;;;;;;;;;;5024148;28;20091;-92
2021/11/25 08:09:45;;;;;;;44.33;15.07;;;;;;;;;;5007008;28;20038;-95
2021/11/25 08:12:12;;;;;;;34.70;14.13;;;;;;;;;;5022817;28;20105;-91
2021/11/25 08:14:40;;;;;;;34.90;15.10;;;;;;;;;;5023615;28;20030;-93
2021/11/25 08:17:09;;;;;;;33.40;12.98;;;;;;;;;;5021552;28;20079;-93
2021/11/25 08:19:43;;;;;;;41.85;15.23;;;;;;;;;;5019583;28;20057;-92
2021/11/25 08:22:13;;;;;;;33.55;14.27;;;;;;;;;;5022704;28;20036;-93
2021/11/25 08:24:49;;;;;;;37.13;14.05;;;;;;;;;;5025476;28;20029;-89
2021/11/25 08:27:15;;;;;;;32.17;13.57;;;;;;;;;;5020201;28;20068;-91
2021/11/25 08:29:41;;;;;;;44.80;15.95;;;;;;;;;;5021271;28;20048;-93
2021/11/25 08:32:08;;;;;;;32.17;13.10;;;;;;;;;;5016168;28;20030;-89
2021/11/25 08:34:35;;;;;;;30.73;12.82;;;;;;;;;;5017793;28;20024;-90
2021/11/25 08:37:01;;;;;;;32.67;13.15;;;;;;;;;;5018244;28;20036;-94
2021/11/25 08:39:59;;;;;;;39.80;15.07;;;;;;;;;;5018149;28;20069;-96
2021/11/25 08:42:26;;;;;;;34.30;13.43;;;;;;;;;;5022761;28;20060;-94
2021/11/25 08:44:53;;;;;;;39.50;15.55;;;;;;;;;;5017287;28;20034;-92
2021/11/25 08:47:20;;;;;;;48.25;16.27;;;;;;;;;;5017966;28;20045;-93
2021/11/25 08:49:46;;;;;;;34.60;15.40;;;;;;;;;;5016426;28;20026;-93
2021/11/25 08:52:13;;;;;;;36.92;13.90;;;;;;;;;;5016980;28;20030;-89
2021/11/25 08:54:39;;;;;;;30.73;11.77;;;;;;;;;;5018329;28;20029;-90
2021/11/25 08:57:07;;;;;;;31.70;13.73;;;;;;;;;;5018373;28;20026;-91
2021/11/25 08:59:33;;;;;;;33.85;14.48;;;;;;;;;;5024918;28;20061;-90
2021/11/25 09:02:02;;;;;;;39.45;15.00;;;;;;;;;;5019747;28;20045;-93
2021/11/25 09:04:30;;;;;;;42.10;14.73;;;;;;;;;;5018532;28;20062;-93
2021/11/25 09:06:57;;;;;;;36.85;15.63;;;;;;;;;;5017982;28;20368;-95
2021/11/25 09:09:35;;;;;;;30.40;13.75;;;;;;;;;;5017081;28;20501;-90
2021/11/25 09:12:04;;;;;;;36.70;14.55;;;;;;;;;;5014763;28;20045;-96
2021/11/25 09:14:34;;;;;;;38.55;14.48;;;;;;;;;;5022686;28;20018;-94
2021/11/25 09:17:04;;;;;;;34.92;13.73;;;;;;;;;;5025077;28;20049;-94
2021/11/25 09:20:06;;;;;;;40.28;15.52;;;;;;;;;;5009631;28;20117;-95
2021/11/25 09:22:36;;;;;;;42.88;15.93;;;;;;;;;;5008481;28;20088;-96
2021/11/25 09:25:04;;;;;;;40.78;14.77;;;;;;;;;;5022480;28;20112;-93
2021/11/25 09:27:30;;;;;;;40.42;14.70;;;;;;;;;;5020383;28;20121;-92
2021/11/25 09:29:57;;;;;;;37.75;15.30;;;;;;;;;;5021660;28;20069;-89
2021/11/25 09:32:26;;;;;;;40.75;14.30;;;;;;;;;;5024978;28;20030;-89
2021/11/25 09:34:53;;;;;;;35.78;14.93;;;;;;;;;;5023312;28;20466;-92
2021/11/25 09:37:19;;;;;;;43.50;16.27;;;;;;;;;;5021860;28;20140;-87
2021/11/25 09:39:45;;;;;;;36.63;14.85;;;;;;;;;;5023430;28;20026;-95
2021/11/25 09:42:11;;;;;;;36.28;15.27;;;;;;;;;;5024570;28;20090;-93
2021/11/25 09:45:10;;;;;;;33.60;15.32;;;;;;;;;;5029428;28;20033;-94
2021/11/25 09:47:37;;;;;;;36.67;15.13;;;;;;;;;;4967497;28;20102;-96
2021/11/25 09:50:10;;;;;;;32.97;15.23;;;;;;;;;;5024490;28;20034;-94
2021/11/25 09:52:38;;;;;;;45.35;17.95;;;;;;;;;;5028345;28;20026;-94
2021/11/25 09:55:08;;;;;;;29.67;13.00;;;;;;;;;;5023718;28;20030;-94
2021/11/25 09:57:38;;;;;;;37.67;15.43;;;;;;;;;;5024161;28;20029;-96
2021/11/25 10:00:05;;;;;;;37.13;15.15;;;;;;;;;;5025001;28;20030;-91
2021/11/25 10:02:39;;;;;;;34.97;15.35;;;;;;;;;;5024577;28;20080;-93
2021/11/25 10:05:05;;;;;;;;;;;;;;;;;;5006995;28;20033;-92
2021/11/25 10:07:47;;;;;;;35.28;14.07;;;;;;;;;;5009502;28;19936;-95
2021/11/25 10:10:22;;;;;;;30.42;12.30;;;;;;;;;;5025222;28;20069;-95
2021/11/25 10:12:48;;;;;;;36.13;13.38;;;;;;;;;;5021534;28;20037;-94
2021/11/25 10:15:42;;;;;;;37.90;13.40;;;;;;;;;;5024157;28;20034;-96
2021/11/25 10:18:25;;;;;;;48.17;17.85;;;;;;;;;;5028725;28;20037;-96
2021/11/25 10:21:02;;;;;;;41.20;17.95;;;;;;;;;;5024664;28;20037;-93
2021/11/25 10:23:45;;;;;;;40.67;17.15;;;;;;;;;;5005222;28;20034;-95
2021/11/25 10:26:25;;;;;;;42.60;15.00;;;;;;;;;;5019160;28;20034;-93
2021/11/25 10:29:17;;;;;;;39.22;15.45;;;;;;;;;;5023404;28;20383;-90
2021/11/25 10:31:44;;;;;;;40.53;15.15;;;;;;;;;;5001313;28;20042;-87
2021/11/25 10:34:20;;;;;;;34.05;14.85;;;;;;;;;;5019920;28;20320;-93
2021/11/25 10:37:04;;;;;;;38.65;15.27;;;;;;;;;;5017945;28;20046;-90
2021/11/25 10:40:33;;;;;;;39.10;14.73;;;;;;;;;;5020657;28;20021;-91
2021/11/25 10:42:36;;;;;;;36.15;15.73;;;;;;;;;;5012777;28;20069;-93
2021/11/25 10:45:10;;;;;;;41.60;15.70;;;;;;;;;;5024994;28;20014;-94
2021/11/25 10:47:37;;;;;;;43.17;15.27;;;;;;;;;;5023784;28;20046;-92
2021/11/25 10:50:07;;;;;;;36.70;15.30;;;;;;;;;;5004342;28;20030;-93
2021/11/25 10:52:52;;;;;;;39.13;15.45;;;;;;;;;;5003394;28;20109;-94
2021/11/25 10:55:19;;;;;;;37.00;15.82;;;;;;;;;;5023434;28;20033;-94
2021/11/25 10:58:06;;;;;;;45.38;16.30;;;;;;;;;;5022811;28;20018;-94
2021/11/25 11:00:36;;;;;;;34.92;13.15;;;;;;;;;;5020392;28;20037;-96
2021/11/25 11:03:13;;;;;;;40.95;15.15;;;;;;;;;;5020507;28;20041;-94
2021/11/25 11:05:55;;;;;;;37.10;15.70;;;;;;;;;;5009135;28;20445;-94
2021/11/25 11:08:50;;;;;;;40.42;15.23;;;;;;;;;;5020035;28;20045;-96
2021/11/25 11:11:26;;;;;;;41.17;16.30;;;;;;;;;;5006032;28;20041;-95
2021/11/25 11:14:30;;;;;;;39.42;15.52;;;;;;;;;;5022503;28;20022;-94
2021/11/25 11:17:19;;;;;;;42.67;16.77;;;;;;;;;;5021159;28;20058;-94
2021/11/25 11:23:46;;;;;;;;;;;;;;;;;;;;;
2021/11/25 11:29:29;;;;;;;34.90;15.25;;;;;;;;;;5007717;28;20040;-92
2021/11/25 11:31:56;;;;;;;43.65;16.17;;;;;;;;;;5023107;28;20121;-94
2021/11/25 11:34:32;;;;;;;48.75;17.88;;;;;;;;;;5022414;28;20030;-94
2021/11/25 11:36:58;;;;;;;54.95;19.13;;;;;;;;;;5020514;28;20564;-94
2021/11/25 11:39:29;;;;;;;46.38;17.02;;;;;;;;;;5005717;28;20036;-93
2021/11/25 11:41:57;;;;;;;45.90;17.08;;;;;;;;;;5024998;28;20033;-92
2021/11/25 11:44:24;;;;;;;40.25;16.23;;;;;;;;;;5024530;28;20360;-95
2021/11/25 11:46:54;;;;;;;41.83;16.85;;;;;;;;;;5025966;28;20040;-94
2021/11/25 11:49:22;;;;;;;46.35;18.45;;;;;;;;;;5027592;28;20033;-90
2021/11/25 11:52:01;;;;;;;44.83;18.15;;;;;;;;;;5027611;28;20033;-92
2021/11/25 11:54:27;;;;;;;42.83;17.42;;;;;;;;;;5027484;28;20029;-90
2021/11/25 11:56:55;;;;;;;45.90;17.75;;;;;;;;;;5025385;28;20030;-91
2021/11/25 11:59:38;;;;;;;50.83;17.58;;;;;;;;;;5026311;28;20054;-93
2021/11/25 12:02:06;;;;;;;56.40;18.40;;;;;;;;;;5026001;28;20029;-94
2021/11/25 12:04:42;;;;;;;47.03;18.73;;;;;;;;;;5026430;28;20017;-94
2021/11/25 12:07:26;;;;;;;49.22;19.52;;;;;;;;;;5007314;28;20042;-93
2021/11/25 12:09:53;;;;;;;49.15;18.10;;;;;;;;;;5025088;28;20036;-91
2021/11/25 12:12:20;;;;;;;47.42;18.63;;;;;;;;;;5025851;28;20030;-92
2021/11/25 12:14:50;;;;;;;42.67;17.50;;;;;;;;;;5027654;28;20022;-88
2021/11/25 12:17:24;;;;;;;52.78;19.23;;;;;;;;;;5026128;28;20022;-91
2021/11/25 12:19:51;;;;;;;45.17;18.73;;;;;;;;;;5023483;28;20069;-94
2021/11/25 12:22:20;;;;;;;49.35;19.42;;;;;;;;;;5023784;28;20026;-93
2021/11/25 12:24:59;;;;;;;47.13;18.17;;;;;;;;;;5022947;28;20022;-92
2021/11/25 12:27:32;;;;;;;44.13;17.27;;;;;;;;;;5023786;28;20033;-95
2021/11/25 12:30:05;;;;;;;43.00;17.70;;;;;;;;;;5020282;28;20021;-93
2021/11/25 12:35:05;;;;;;;51.92;17.20;;;;;;;;;;5020970;28;20026;-93
2021/11/25 12:38:00;;;;;;;46.28;17.60;;;;;;;;;;5019648;28;20395;-92
2021/11/25 12:40:26;;;;;;;41.58;17.27;;;;;;;;;;5022393;28;20054;-93
2021/11/25 12:42:56;;;;;;;43.85;18.15;;;;;;;;;;5022529;28;20032;-93
2021/11/25 12:45:47;;;;;;;47.28;19.02;;;;;;;;;;5024198;28;20030;-89
2021/11/25 12:48:36;;;;;;;42.10;17.80;;;;;;;;;;4999690;28;20034;-93
2021/11/25 12:51:07;;;;;;;42.47;17.45;;;;;;;;;;5025410;28;20077;-94
2021/11/25 12:53:41;;;;;;;45.95;18.70;;;;;;;;;;5022476;28;20056;-94
2021/11/25 12:56:16;;;;;;;41.35;16.65;;;;;;;;;;5023390;28;20022;-94
2021/11/25 12:58:44;;;;;;;46.47;17.48;;;;;;;;;;5023779;28;20026;-95
2021/11/25 13:01:17;;;;;;;43.35;18.42;;;;;;;;;;5024493;28;20030;-92
2021/11/25 13:03:43;;;;;;;45.08;17.95;;;;;;;;;;5025200;28;20037;-96
2021/11/25 13:06:12;;;;;;;50.13;19.63;;;;;;;;;;5023976;28;20097;-93
2021/11/25 13:08:41;;;;;;;50.17;18.58;;;;;;;;;;5025787;28;20022;-93
2021/11/25 13:11:14;;;;;;;47.30;19.33;;;;;;;;;;5023438;28;20026;-92
2021/11/25 13:13:40;;;;;;;46.40;19.55;;;;;;;;;;5024853;28;20025;-94
2021/11/25 13:16:08;;;;;;;45.58;19.35;;;;;;;;;;5023717;28;20038;-93
2021/11/25 13:18:38;;;;;;;44.63;19.52;;;;;;;;;;5022827;28;20029;-89
2021/11/25 13:21:05;;;;;;;54.53;20.10;;;;;;;;;;5022713;28;20073;-90
2021/11/25 13:23:31;;;;;;;48.13;20.58;;;;;;;;;;5025458;28;20037;-89
2021/11/25 13:26:00;;;;;;;52.60;20.90;;;;;;;;;;5024110;28;20115;-92
2021/11/25 13:28:32;;;;;;;50.63;19.90;;;;;;;;;;5023311;28;20097;-93
2021/11/25 13:31:19;;;;;;;45.20;20.33;;;;;;;;;;5022075;28;20029;-86
2021/11/25 13:34:06;;;;;;;50.97;20.13;;;;;;;;;;5029145;28;20034;-92
2021/11/25 13:36:51;;;;;;;45.97;19.50;;;;;;;;;;5027952;28;20418;-96
2021/11/25 13:39:21;;;;;;;45.20;19.23;;;;;;;;;;5024015;28;20042;-89
2021/11/25 13:41:50;;;;;;;55.58;20.48;;;;;;;;;;5021924;28;20073;-94
2021/11/25 13:44:17;;;;;;;48.08;18.27;;;;;;;;;;5023861;28;20030;-96
2021/11/25 13:46:46;;;;;;;53.30;19.85;;;;;;;;;;5005245;28;20038;-95
2021/11/25 13:49:19;;;;;;;45.78;20.10;;;;;;;;;;5029749;28;20482;-90
2021/11/25 13:51:51;;;;;;;52.42;19.55;;;;;;;;;;5018482;28;20061;-93
2021/11/25 13:54:22;;;;;;;41.17;17.13;;;;;;;;;;5029349;28;20081;-90
2021/11/25 13:56:54;;;;;;;45.95;19.23;;;;;;;;;;5027130;28;20022;-93
2021/11/25 13:59:23;;;;;;;52.78;19.80;;;;;;;;;;5025164;28;20069;-96
2021/11/25 14:01:50;;;;;;;48.97;19.67;;;;;;;;;;5025437;28;20036;-93
2021/11/25 14:04:17;;;;;;;47.85;19.55;;;;;;;;;;5025384;28;20018;-91
2021/11/25 14:06:46;;;;;;;47.42;20.13;;;;;;;;;;5021849;28;20038;-95
2021/11/25 14:09:22;;;;;;;50.53;20.33;;;;;;;;;;5021934;28;20026;-95
2021/11/25 14:12:04;;;;;;;45.75;17.27;;;;;;;;;;5022445;28;20030;-94
2021/11/25 14:14:38;;;;;;;43.70;19.55;;;;;;;;;;5017072;28;20082;-95
2021/11/25 14:17:12;;;;;;;45.33;18.35;;;;;;;;;;5024355;28;20033;-94
2021/11/25 14:19:43;;;;;;;43.85;17.58;;;;;;;;;;5023434;28;20026;-94
2021/11/25 14:22:18;;;;;;;43.03;17.17;;;;;;;;;;5025102;28;20034;-94
2021/11/25 14:24:45;;;;;;;50.05;19.85;;;;;;;;;;5024602;28;20030;-95
2021/11/25 14:32:30;;;;;;;47.65;19.23;;;;;;;;;;5017706;28;20072;-88
2021/11/25 14:34:56;;;;;;;48.63;19.58;;;;;;;;;;5016281;28;20030;-90
2021/11/25 14:37:24;;;;;;;47.92;18.75;;;;;;;;;;5016332;28;20025;-89
2021/11/25 14:39:51;;;;;;;44.42;18.10;;;;;;;;;;5016227;28;20072;-89
2021/11/25 14:42:22;;;;;;;49.30;18.60;;;;;;;;;;5016624;28;20022;-90
2021/11/25 14:45:09;;;;;;;46.50;19.48;;;;;;;;;;5016430;28;20026;-89
2021/11/25 14:47:47;;;;;;;50.47;18.90;;;;;;;;;;5000614;28;20037;-90
2021/11/25 14:50:31;;;;;;;44.63;18.17;;;;;;;;;;5020906;28;20493;-89
2021/11/25 14:53:04;;;;;;;50.75;20.13;;;;;;;;;;5017051;28;20033;-89
2021/11/25 14:55:30;;;;;;;55.45;20.95;;;;;;;;;;5017704;28;20030;-89
2021/11/25 14:57:57;;;;;;;56.40;19.90;;;;;;;;;;5016038;28;20034;-90
2021/11/25 15:00:24;;;;;;;55.65;19.65;;;;;;;;;;5001305;28;20145;-89
2021/11/25 15:03:04;;;;;;;52.28;20.08;;;;;;;;;;4985337;28;20030;-87
2021/11/25 15:05:35;;;;;;;51.10;19.77;;;;;;;;;;4986828;28;20030;-84
2021/11/25 15:08:05;;;;;;;53.17;19.98;;;;;;;;;;4981811;28;20069;-85
2021/11/25 15:10:33;;;;;;;47.70;19.95;;;;;;;;;;4997408;28;20019;-87
2021/11/25 15:12:59;;;;;;;55.13;20.17;;;;;;;;;;4993866;28;20090;-84
2021/11/25 15:15:25;;;;;;;47.83;20.42;;;;;;;;;;5018517;28;20014;-84
2021/11/25 15:17:52;;;;;;;57.30;20.65;;;;;;;;;;5011401;28;20031;-86
2021/11/25 15:20:19;;;;;;;49.45;20.80;;;;;;;;;;5000529;28;20077;-88
2021/11/25 15:22:46;;;;;;;49.47;20.58;;;;;;;;;;4995257;28;20030;-86
2021/11/25 15:25:13;;;;;;;54.00;20.40;;;;;;;;;;4996142;28;20387;-88
2021/11/25 15:27:40;;;;;;;47.60;18.23;;;;;;;;;;4994614;28;20038;-89
2021/11/25 15:30:08;;;;;;;50.78;18.35;;;;;;;;;;4995737;28;20391;-89
2021/11/25 15:32:35;;;;;;;48.60;20.67;;;;;;;;;;4995749;28;20360;-87
2021/11/25 15:35:03;;;;;;;50.55;20.60;;;;;;;;;;4995976;28;20018;-89
2021/11/25 15:37:30;;;;;;;52.63;21.65;;;;;;;;;;4995757;28;20026;-89
2021/11/25 15:39:56;;;;;;;52.28;20.88;;;;;;;;;;4996260;28;20030;-89
2021/11/25 15:42:23;;;;;;;60.30;21.23;;;;;;;;;;4996354;28;20027;-90
2021/11/25 15:44:49;;;;;;;45.53;20.15;;;;;;;;;;4995207;28;20445;-90
2021/11/25 15:47:17;;;;;;;42.92;18.13;;;;;;;;;;4995209;28;20045;-87
2021/11/25 15:49:43;;;;;;;46.40;19.63;;;;;;;;;;4995111;28;20031;-87
2021/11/25 15:52:09;;;;;;;49.33;19.60;;;;;;;;;;4996487;28;20034;-88
2021/11/25 15:54:35;;;;;;;48.75;20.40;;;;;;;;;;4995388;28;20038;-88